sensor_id;sensor_type;location;lat;lon;timestamp;P1;durP1;ratioP1;P2;durP2;ratioP2
757;SDS011;363;48.764;9.172;2023-08-24T00:01:23;8.90;;;8.17;;
757;SDS011;363;48.764;9.172;2023-08-24T00:03:49;7.83;;;7.13;;
757;SDS011;363;48.764;9.172;2023-08-24T00:06:14;9.10;;;8.40;;
757;SDS011;363;48.764;9.172;2023-08-24T00:08:41;8.63;;;7.95;;
757;SDS011;363;48.764;9.172;2023-08-24T00:11:08;9.10;;;8.30;;
757;SDS011;363;48.764;9.172;2023-08-24T00:13:36;9.75;;;8.75;;
757;SDS011;363;48.764;9.172;2023-08-24T00:16:02;8.90;;;8.17;;
757;SDS011;363;48.764;9.172;2023-08-24T00:18:29;9.65;;;8.95;;
757;SDS011;363;48.764;9.172;2023-08-24T00:20:54;8.83;;;8.13;;
757;SDS011;363;48.764;9.172;2023-08-24T00:23:21;9.00;;;8.23;;
757;SDS011;363;48.764;9.172;2023-08-24T00:25:46;9.87;;;8.97;;
757;SDS011;363;48.764;9.172;2023-08-24T00:28:12;9.00;;;8.20;;
757;SDS011;363;48.764;9.172;2023-08-24T00:30:37;8.63;;;7.83;;
757;SDS011;363;48.764;9.172;2023-08-24T00:33:03;9.03;;;8.43;;
757;SDS011;363;48.764;9.172;2023-08-24T00:35:29;9.13;;;8.32;;
757;SDS011;363;48.764;9.172;2023-08-24T00:37:55;8.88;;;8.18;;
757;SDS011;363;48.764;9.172;2023-08-24T00:40:21;9.07;;;8.10;;
757;SDS011;363;48.764;9.172;2023-08-24T00:42:47;9.40;;;8.60;;
757;SDS011;363;48.764;9.172;2023-08-24T00:45:13;9.80;;;9.00;;
757;SDS011;363;48.764;9.172;2023-08-24T00:47:39;9.32;;;8.52;;
757;SDS011;363;48.764;9.172;2023-08-24T00:50:06;9.20;;;8.60;;
757;SDS011;363;48.764;9.172;2023-08-24T00:52:33;8.38;;;7.78;;
757;SDS011;363;48.764;9.172;2023-08-24T00:55:02;9.75;;;8.95;;
757;SDS011;363;48.764;9.172;2023-08-24T00:57:28;8.90;;;8.20;;
757;SDS011;363;48.764;9.172;2023-08-24T00:59:56;8.87;;;7.97;;
757;SDS011;363;48.764;9.172;2023-08-24T01:02:24;9.85;;;9.05;;
757;SDS011;363;48.764;9.172;2023-08-24T01:04:49;9.03;;;8.20;;
757;SDS011;363;48.764;9.172;2023-08-24T01:07:15;9.33;;;8.53;;
757;SDS011;363;48.764;9.172;2023-08-24T01:09:58;9.30;;;8.50;;
757;SDS011;363;48.764;9.172;2023-08-24T01:12:40;10.30;;;9.40;;
757;SDS011;363;48.764;9.172;2023-08-24T01:18:04;8.80;;;8.20;;
757;SDS011;363;48.764;9.172;2023-08-24T01:20:34;9.90;;;9.10;;
757;SDS011;363;48.764;9.172;2023-08-24T01:23:07;8.60;;;8.00;;
757;SDS011;363;48.764;9.172;2023-08-24T01:26:01;9.07;;;8.35;;
757;SDS011;363;48.764;9.172;2023-08-24T01:28:30;9.27;;;8.68;;
757;SDS011;363;48.764;9.172;2023-08-24T01:30:56;10.07;;;9.05;;
757;SDS011;363;48.764;9.172;2023-08-24T01:33:22;10.03;;;8.90;;
757;SDS011;363;48.764;9.172;2023-08-24T01:35:47;8.60;;;8.00;;
757;SDS011;363;48.764;9.172;2023-08-24T01:38:13;10.23;;;9.23;;
757;SDS011;363;48.764;9.172;2023-08-24T01:41:16;9.50;;;8.70;;
757;SDS011;363;48.764;9.172;2023-08-24T01:43:42;9.35;;;8.52;;
757;SDS011;363;48.764;9.172;2023-08-24T01:46:14;9.30;;;8.60;;
757;SDS011;363;48.764;9.172;2023-08-24T01:48:42;11.20;;;8.45;;
757;SDS011;363;48.764;9.172;2023-08-24T01:51:09;10.23;;;9.27;;
757;SDS011;363;48.764;9.172;2023-08-24T01:53:35;9.90;;;9.20;;
757;SDS011;363;48.764;9.172;2023-08-24T01:56:07;10.23;;;9.52;;
757;SDS011;363;48.764;9.172;2023-08-24T01:58:40;9.82;;;9.05;;
757;SDS011;363;48.764;9.172;2023-08-24T02:01:06;8.73;;;8.13;;
757;SDS011;363;48.764;9.172;2023-08-24T02:03:35;9.48;;;8.77;;
757;SDS011;363;48.764;9.172;2023-08-24T02:06:01;9.73;;;9.00;;
757;SDS011;363;48.764;9.172;2023-08-24T02:08:27;9.50;;;8.80;;
757;SDS011;363;48.764;9.172;2023-08-24T02:10:52;9.17;;;8.30;;
757;SDS011;363;48.764;9.172;2023-08-24T02:13:19;9.75;;;8.95;;
757;SDS011;363;48.764;9.172;2023-08-24T02:15:44;9.70;;;8.90;;
757;SDS011;363;48.764;9.172;2023-08-24T02:18:10;9.77;;;8.97;;
757;SDS011;363;48.764;9.172;2023-08-24T02:20:39;10.10;;;9.30;;
757;SDS011;363;48.764;9.172;2023-08-24T02:23:05;9.30;;;8.60;;
757;SDS011;363;48.764;9.172;2023-08-24T02:25:31;9.80;;;8.77;;
757;SDS011;363;48.764;9.172;2023-08-24T02:27:56;9.63;;;8.67;;
757;SDS011;363;48.764;9.172;2023-08-24T02:30:22;10.57;;;9.70;;
757;SDS011;363;48.764;9.172;2023-08-24T02:32:48;10.10;;;9.20;;
757;SDS011;363;48.764;9.172;2023-08-24T02:35:14;9.82;;;8.93;;
757;SDS011;363;48.764;9.172;2023-08-24T02:37:40;9.47;;;8.77;;
757;SDS011;363;48.764;9.172;2023-08-24T02:40:05;9.90;;;9.20;;
757;SDS011;363;48.764;9.172;2023-08-24T02:42:33;9.02;;;8.32;;
757;SDS011;363;48.764;9.172;2023-08-24T02:44:59;9.70;;;8.93;;
757;SDS011;363;48.764;9.172;2023-08-24T02:47:24;12.63;;;9.30;;
757;SDS011;363;48.764;9.172;2023-08-24T02:49:50;10.33;;;9.53;;
757;SDS011;363;48.764;9.172;2023-08-24T02:52:16;10.82;;;9.82;;
757;SDS011;363;48.764;9.172;2023-08-24T02:54:42;10.03;;;9.23;;
757;SDS011;363;48.764;9.172;2023-08-24T02:57:08;11.90;;;10.87;;
757;SDS011;363;48.764;9.172;2023-08-24T02:59:34;9.80;;;9.03;;
757;SDS011;363;48.764;9.172;2023-08-24T03:02:00;10.40;;;9.60;;
757;SDS011;363;48.764;9.172;2023-08-24T03:04:25;10.10;;;9.20;;
757;SDS011;363;48.764;9.172;2023-08-24T03:06:51;10.90;;;9.90;;
757;SDS011;363;48.764;9.172;2023-08-24T03:09:16;9.80;;;9.10;;
757;SDS011;363;48.764;9.172;2023-08-24T03:11:42;11.43;;;10.40;;
757;SDS011;363;48.764;9.172;2023-08-24T03:14:08;10.10;;;9.30;;
757;SDS011;363;48.764;9.172;2023-08-24T03:16:33;11.00;;;9.90;;
757;SDS011;363;48.764;9.172;2023-08-24T03:18:59;10.73;;;9.93;;
757;SDS011;363;48.764;9.172;2023-08-24T03:21:25;11.33;;;10.43;;
757;SDS011;363;48.764;9.172;2023-08-24T03:23:50;10.50;;;9.60;;
757;SDS011;363;48.764;9.172;2023-08-24T03:26:16;10.67;;;9.40;;
757;SDS011;363;48.764;9.172;2023-08-24T03:28:42;10.77;;;9.73;;
757;SDS011;363;48.764;9.172;2023-08-24T03:31:08;10.77;;;9.98;;
757;SDS011;363;48.764;9.172;2023-08-24T03:33:33;10.50;;;9.60;;
757;SDS011;363;48.764;9.172;2023-08-24T03:35:59;12.30;;;11.20;;
757;SDS011;363;48.764;9.172;2023-08-24T03:38:26;11.25;;;10.18;;
757;SDS011;363;48.764;9.172;2023-08-24T03:40:59;9.95;;;9.05;;
757;SDS011;363;48.764;9.172;2023-08-24T03:43:30;11.40;;;10.35;;
757;SDS011;363;48.764;9.172;2023-08-24T03:45:57;10.07;;;9.38;;
757;SDS011;363;48.764;9.172;2023-08-24T03:48:22;10.30;;;9.60;;
757;SDS011;363;48.764;9.172;2023-08-24T03:50:48;11.70;;;9.97;;
757;SDS011;363;48.764;9.172;2023-08-24T03:53:13;10.93;;;10.10;;
757;SDS011;363;48.764;9.172;2023-08-24T03:55:39;11.03;;;10.10;;
757;SDS011;363;48.764;9.172;2023-08-24T03:58:05;10.13;;;9.20;;
757;SDS011;363;48.764;9.172;2023-08-24T04:00:30;10.73;;;9.83;;
757;SDS011;363;48.764;9.172;2023-08-24T04:02:56;9.70;;;8.90;;
757;SDS011;363;48.764;9.172;2023-08-24T04:05:21;10.40;;;9.60;;
757;SDS011;363;48.764;9.172;2023-08-24T04:07:47;10.30;;;9.40;;
757;SDS011;363;48.764;9.172;2023-08-24T04:10:13;11.23;;;10.20;;
757;SDS011;363;48.764;9.172;2023-08-24T04:12:38;10.67;;;9.63;;
757;SDS011;363;48.764;9.172;2023-08-24T04:15:04;10.50;;;9.70;;
757;SDS011;363;48.764;9.172;2023-08-24T04:17:30;10.48;;;9.68;;
757;SDS011;363;48.764;9.172;2023-08-24T04:19:56;10.30;;;9.40;;
757;SDS011;363;48.764;9.172;2023-08-24T04:22:21;10.90;;;10.00;;
757;SDS011;363;48.764;9.172;2023-08-24T04:24:47;10.40;;;9.60;;
757;SDS011;363;48.764;9.172;2023-08-24T04:27:13;10.00;;;9.27;;
757;SDS011;363;48.764;9.172;2023-08-24T04:29:39;10.57;;;9.70;;
757;SDS011;363;48.764;9.172;2023-08-24T04:32:05;10.33;;;9.43;;
757;SDS011;363;48.764;9.172;2023-08-24T04:34:34;10.32;;;9.32;;
757;SDS011;363;48.764;9.172;2023-08-24T04:37:00;10.00;;;9.10;;
757;SDS011;363;48.764;9.172;2023-08-24T04:39:26;10.82;;;9.93;;
757;SDS011;363;48.764;9.172;2023-08-24T04:41:52;9.90;;;9.10;;
757;SDS011;363;48.764;9.172;2023-08-24T04:44:17;10.47;;;9.70;;
757;SDS011;363;48.764;9.172;2023-08-24T04:46:43;9.60;;;8.90;;
757;SDS011;363;48.764;9.172;2023-08-24T04:49:08;10.97;;;9.90;;
757;SDS011;363;48.764;9.172;2023-08-24T04:51:34;9.90;;;8.90;;
757;SDS011;363;48.764;9.172;2023-08-24T04:54:00;11.07;;;9.77;;
757;SDS011;363;48.764;9.172;2023-08-24T04:56:25;9.93;;;9.13;;
757;SDS011;363;48.764;9.172;2023-08-24T04:58:54;10.50;;;9.70;;
757;SDS011;363;48.764;9.172;2023-08-24T05:01:22;10.43;;;9.48;;
757;SDS011;363;48.764;9.172;2023-08-24T05:03:56;9.35;;;8.65;;
757;SDS011;363;48.764;9.172;2023-08-24T05:06:22;10.20;;;9.40;;
757;SDS011;363;48.764;9.172;2023-08-24T05:08:47;9.90;;;9.20;;
757;SDS011;363;48.764;9.172;2023-08-24T05:11:14;9.47;;;8.67;;
757;SDS011;363;48.764;9.172;2023-08-24T05:13:43;9.18;;;8.40;;
757;SDS011;363;48.764;9.172;2023-08-24T05:16:09;10.00;;;8.75;;
757;SDS011;363;48.764;9.172;2023-08-24T05:18:35;9.87;;;8.87;;
757;SDS011;363;48.764;9.172;2023-08-24T05:21:01;9.13;;;8.43;;
757;SDS011;363;48.764;9.172;2023-08-24T05:23:31;9.70;;;8.93;;
757;SDS011;363;48.764;9.172;2023-08-24T05:25:57;10.02;;;9.13;;
757;SDS011;363;48.764;9.172;2023-08-24T05:28:24;13.45;;;9.20;;
757;SDS011;363;48.764;9.172;2023-08-24T05:30:51;10.68;;;9.70;;
757;SDS011;363;48.764;9.172;2023-08-24T05:33:17;10.23;;;9.38;;
757;SDS011;363;48.764;9.172;2023-08-24T05:35:43;9.83;;;9.03;;
757;SDS011;363;48.764;9.172;2023-08-24T05:38:08;13.00;;;10.63;;
757;SDS011;363;48.764;9.172;2023-08-24T05:40:34;9.80;;;9.00;;
757;SDS011;363;48.764;9.172;2023-08-24T05:43:00;10.00;;;9.10;;
757;SDS011;363;48.764;9.172;2023-08-24T05:45:25;9.57;;;8.77;;
757;SDS011;363;48.764;9.172;2023-08-24T05:47:51;9.90;;;9.10;;
757;SDS011;363;48.764;9.172;2023-08-24T05:50:17;9.57;;;8.77;;
757;SDS011;363;48.764;9.172;2023-08-24T05:52:42;9.03;;;8.10;;
757;SDS011;363;48.764;9.172;2023-08-24T05:55:08;8.70;;;8.00;;
757;SDS011;363;48.764;9.172;2023-08-24T05:57:33;8.93;;;8.23;;
757;SDS011;363;48.764;9.172;2023-08-24T05:59:59;8.97;;;8.20;;
757;SDS011;363;48.764;9.172;2023-08-24T06:02:25;9.20;;;8.30;;
757;SDS011;363;48.764;9.172;2023-08-24T06:04:50;9.67;;;8.13;;
757;SDS011;363;48.764;9.172;2023-08-24T06:07:16;9.07;;;8.30;;
757;SDS011;363;48.764;9.172;2023-08-24T06:09:42;9.40;;;8.30;;
757;SDS011;363;48.764;9.172;2023-08-24T06:12:07;8.30;;;7.60;;
757;SDS011;363;48.764;9.172;2023-08-24T06:14:33;8.00;;;7.37;;
757;SDS011;363;48.764;9.172;2023-08-24T06:16:59;8.40;;;7.70;;
757;SDS011;363;48.764;9.172;2023-08-24T06:19:24;8.20;;;7.60;;
757;SDS011;363;48.764;9.172;2023-08-24T06:21:50;8.73;;;7.90;;
757;SDS011;363;48.764;9.172;2023-08-24T06:24:16;12.23;;;8.27;;
757;SDS011;363;48.764;9.172;2023-08-24T06:26:41;9.20;;;8.40;;
757;SDS011;363;48.764;9.172;2023-08-24T06:29:07;8.80;;;7.70;;
757;SDS011;363;48.764;9.172;2023-08-24T06:31:32;8.13;;;7.40;;
757;SDS011;363;48.764;9.172;2023-08-24T06:33:58;8.83;;;7.90;;
757;SDS011;363;48.764;9.172;2023-08-24T06:36:24;8.30;;;6.67;;
757;SDS011;363;48.764;9.172;2023-08-24T06:38:49;8.90;;;7.50;;
757;SDS011;363;48.764;9.172;2023-08-24T06:41:16;8.20;;;7.50;;
757;SDS011;363;48.764;9.172;2023-08-24T06:43:42;8.63;;;7.80;;
757;SDS011;363;48.764;9.172;2023-08-24T06:46:07;8.00;;;7.37;;
757;SDS011;363;48.764;9.172;2023-08-24T06:48:33;9.30;;;8.40;;
757;SDS011;363;48.764;9.172;2023-08-24T06:50:59;8.13;;;7.33;;
757;SDS011;363;48.764;9.172;2023-08-24T06:53:25;8.10;;;7.40;;
757;SDS011;363;48.764;9.172;2023-08-24T06:55:57;8.10;;;7.40;;
757;SDS011;363;48.764;9.172;2023-08-24T06:58:23;7.70;;;6.83;;
757;SDS011;363;48.764;9.172;2023-08-24T07:00:49;8.20;;;7.57;;
757;SDS011;363;48.764;9.172;2023-08-24T07:03:19;8.57;;;7.80;;
757;SDS011;363;48.764;9.172;2023-08-24T07:05:45;8.00;;;7.13;;
757;SDS011;363;48.764;9.172;2023-08-24T07:08:11;7.30;;;6.80;;
757;SDS011;363;48.764;9.172;2023-08-24T07:10:37;7.87;;;7.10;;
757;SDS011;363;48.764;9.172;2023-08-24T07:13:04;7.93;;;7.33;;
757;SDS011;363;48.764;9.172;2023-08-24T07:15:32;8.67;;;7.10;;
757;SDS011;363;48.764;9.172;2023-08-24T07:18:00;8.33;;;7.53;;
757;SDS011;363;48.764;9.172;2023-08-24T07:20:26;8.33;;;7.50;;
757;SDS011;363;48.764;9.172;2023-08-24T07:22:52;7.13;;;6.53;;
757;SDS011;363;48.764;9.172;2023-08-24T07:25:19;8.77;;;7.93;;
757;SDS011;363;48.764;9.172;2023-08-24T07:27:46;7.93;;;7.27;;
757;SDS011;363;48.764;9.172;2023-08-24T07:30:12;8.57;;;7.77;;
757;SDS011;363;48.764;9.172;2023-08-24T07:32:38;8.00;;;7.40;;
757;SDS011;363;48.764;9.172;2023-08-24T07:35:04;8.60;;;7.70;;
757;SDS011;363;48.764;9.172;2023-08-24T07:37:31;8.03;;;7.33;;
757;SDS011;363;48.764;9.172;2023-08-24T07:39:57;10.40;;;7.97;;
757;SDS011;363;48.764;9.172;2023-08-24T07:42:22;8.40;;;7.80;;
757;SDS011;363;48.764;9.172;2023-08-24T07:44:48;8.03;;;7.50;;
757;SDS011;363;48.764;9.172;2023-08-24T07:47:14;35.93;;;13.10;;
757;SDS011;363;48.764;9.172;2023-08-24T07:49:40;11.30;;;9.83;;
757;SDS011;363;48.764;9.172;2023-08-24T07:52:09;42.13;;;10.83;;
757;SDS011;363;48.764;9.172;2023-08-24T07:54:36;8.20;;;7.17;;
757;SDS011;363;48.764;9.172;2023-08-24T07:57:01;9.20;;;8.40;;
757;SDS011;363;48.764;9.172;2023-08-24T07:59:27;10.27;;;8.50;;
757;SDS011;363;48.764;9.172;2023-08-24T08:01:53;9.10;;;8.20;;
757;SDS011;363;48.764;9.172;2023-08-24T08:04:18;9.30;;;8.50;;
757;SDS011;363;48.764;9.172;2023-08-24T08:06:44;10.47;;;9.53;;
757;SDS011;363;48.764;9.172;2023-08-24T08:09:09;10.30;;;9.27;;
757;SDS011;363;48.764;9.172;2023-08-24T08:11:35;9.20;;;8.30;;
757;SDS011;363;48.764;9.172;2023-08-24T08:14:01;13.07;;;8.70;;
757;SDS011;363;48.764;9.172;2023-08-24T08:16:27;9.47;;;8.50;;
757;SDS011;363;48.764;9.172;2023-08-24T08:18:52;8.97;;;8.03;;
757;SDS011;363;48.764;9.172;2023-08-24T08:21:18;8.53;;;7.67;;
757;SDS011;363;48.764;9.172;2023-08-24T08:23:44;10.33;;;9.30;;
757;SDS011;363;48.764;9.172;2023-08-24T08:26:13;9.03;;;7.20;;
757;SDS011;363;48.764;9.172;2023-08-24T08:28:41;9.97;;;7.07;;
757;SDS011;363;48.764;9.172;2023-08-24T08:31:07;7.40;;;6.70;;
757;SDS011;363;48.764;9.172;2023-08-24T08:33:33;8.27;;;7.57;;
757;SDS011;363;48.764;9.172;2023-08-24T08:35:58;7.77;;;7.17;;
757;SDS011;363;48.764;9.172;2023-08-24T08:38:24;7.23;;;6.67;;
757;SDS011;363;48.764;9.172;2023-08-24T08:41:02;8.30;;;7.60;;
757;SDS011;363;48.764;9.172;2023-08-24T08:43:29;7.30;;;6.70;;
757;SDS011;363;48.764;9.172;2023-08-24T08:45:55;7.63;;;7.03;;
757;SDS011;363;48.764;9.172;2023-08-24T08:48:21;7.13;;;6.57;;
757;SDS011;363;48.764;9.172;2023-08-24T08:50:57;6.50;;;6.00;;
757;SDS011;363;48.764;9.172;2023-08-24T08:53:24;8.33;;;7.73;;
757;SDS011;363;48.764;9.172;2023-08-24T08:55:54;8.50;;;7.90;;
757;SDS011;363;48.764;9.172;2023-08-24T08:58:20;7.20;;;6.60;;
757;SDS011;363;48.764;9.172;2023-08-24T09:00:46;7.23;;;6.60;;
757;SDS011;363;48.764;9.172;2023-08-24T09:03:13;7.67;;;6.80;;
757;SDS011;363;48.764;9.172;2023-08-24T09:05:42;7.17;;;6.57;;
757;SDS011;363;48.764;9.172;2023-08-24T09:08:08;9.57;;;8.63;;
757;SDS011;363;48.764;9.172;2023-08-24T09:10:34;8.37;;;6.50;;
757;SDS011;363;48.764;9.172;2023-08-24T09:13:00;7.90;;;7.10;;
757;SDS011;363;48.764;9.172;2023-08-24T09:15:26;7.17;;;6.57;;
757;SDS011;363;48.764;9.172;2023-08-24T09:17:53;7.53;;;6.93;;
757;SDS011;363;48.764;9.172;2023-08-24T09:20:21;8.80;;;7.97;;
757;SDS011;363;48.764;9.172;2023-08-24T09:22:47;8.30;;;7.03;;
757;SDS011;363;48.764;9.172;2023-08-24T09:25:12;9.83;;;9.03;;
757;SDS011;363;48.764;9.172;2023-08-24T09:27:38;8.47;;;7.67;;
757;SDS011;363;48.764;9.172;2023-08-24T09:30:04;7.73;;;7.10;;
757;SDS011;363;48.764;9.172;2023-08-24T09:32:32;9.77;;;8.77;;
757;SDS011;363;48.764;9.172;2023-08-24T09:35:02;8.83;;;6.90;;
757;SDS011;363;48.764;9.172;2023-08-24T09:37:36;8.30;;;6.93;;
757;SDS011;363;48.764;9.172;2023-08-24T09:40:06;7.30;;;6.63;;
757;SDS011;363;48.764;9.172;2023-08-24T09:42:42;7.53;;;6.90;;
757;SDS011;363;48.764;9.172;2023-08-24T09:45:11;8.97;;;8.00;;
757;SDS011;363;48.764;9.172;2023-08-24T09:47:37;7.70;;;7.00;;
757;SDS011;363;48.764;9.172;2023-08-24T09:50:04;7.93;;;7.27;;
757;SDS011;363;48.764;9.172;2023-08-24T09:52:34;8.00;;;7.40;;
757;SDS011;363;48.764;9.172;2023-08-24T09:55:03;10.80;;;7.80;;
757;SDS011;363;48.764;9.172;2023-08-24T09:57:38;8.30;;;7.63;;
757;SDS011;363;48.764;9.172;2023-08-24T10:00:08;8.20;;;7.43;;
757;SDS011;363;48.764;9.172;2023-08-24T10:02:56;10.60;;;9.70;;
757;SDS011;363;48.764;9.172;2023-08-24T10:05:25;9.50;;;8.70;;
757;SDS011;363;48.764;9.172;2023-08-24T10:07:53;7.73;;;7.13;;
757;SDS011;363;48.764;9.172;2023-08-24T10:10:21;7.90;;;7.30;;
757;SDS011;363;48.764;9.172;2023-08-24T10:12:52;8.07;;;7.47;;
757;SDS011;363;48.764;9.172;2023-08-24T10:15:24;16.43;;;15.00;;
757;SDS011;363;48.764;9.172;2023-08-24T10:17:51;10.10;;;9.07;;
757;SDS011;363;48.764;9.172;2023-08-24T10:20:21;11.30;;;10.27;;
757;SDS011;363;48.764;9.172;2023-08-24T10:22:47;9.03;;;8.07;;
757;SDS011;363;48.764;9.172;2023-08-24T10:25:14;8.43;;;7.63;;
757;SDS011;363;48.764;9.172;2023-08-24T10:27:41;8.43;;;7.63;;
757;SDS011;363;48.764;9.172;2023-08-24T10:30:12;8.30;;;7.60;;
757;SDS011;363;48.764;9.172;2023-08-24T10:32:39;9.03;;;8.33;;
757;SDS011;363;48.764;9.172;2023-08-24T10:35:07;8.53;;;7.83;;
757;SDS011;363;48.764;9.172;2023-08-24T10:37:33;8.40;;;7.53;;
757;SDS011;363;48.764;9.172;2023-08-24T10:40:01;8.13;;;7.53;;
757;SDS011;363;48.764;9.172;2023-08-24T10:42:42;9.60;;;8.70;;
757;SDS011;363;48.764;9.172;2023-08-24T10:45:10;8.07;;;7.43;;
757;SDS011;363;48.764;9.172;2023-08-24T10:47:43;8.43;;;7.73;;
757;SDS011;363;48.764;9.172;2023-08-24T10:50:13;9.87;;;9.00;;
757;SDS011;363;48.764;9.172;2023-08-24T10:52:42;8.30;;;7.40;;
757;SDS011;363;48.764;9.172;2023-08-24T10:55:22;8.10;;;7.50;;
757;SDS011;363;48.764;9.172;2023-08-24T10:57:56;8.13;;;7.53;;
757;SDS011;363;48.764;9.172;2023-08-24T11:00:24;7.80;;;7.10;;
757;SDS011;363;48.764;9.172;2023-08-24T11:02:54;8.20;;;7.60;;
757;SDS011;363;48.764;9.172;2023-08-24T11:05:24;8.40;;;7.70;;
757;SDS011;363;48.764;9.172;2023-08-24T11:07:59;9.23;;;8.40;;
757;SDS011;363;48.764;9.172;2023-08-24T11:13:12;8.70;;;8.10;;
757;SDS011;363;48.764;9.172;2023-08-24T11:15:45;9.03;;;8.33;;
757;SDS011;363;48.764;9.172;2023-08-24T11:18:30;10.30;;;8.63;;
757;SDS011;363;48.764;9.172;2023-08-24T11:20:56;9.07;;;8.13;;
757;SDS011;363;48.764;9.172;2023-08-24T11:23:27;8.37;;;7.67;;
757;SDS011;363;48.764;9.172;2023-08-24T11:25:53;9.27;;;8.57;;
757;SDS011;363;48.764;9.172;2023-08-24T11:28:22;8.53;;;7.77;;
757;SDS011;363;48.764;9.172;2023-08-24T11:30:52;8.67;;;7.90;;
757;SDS011;363;48.764;9.172;2023-08-24T11:33:28;8.50;;;7.90;;
757;SDS011;363;48.764;9.172;2023-08-24T11:35:58;10.60;;;8.20;;
757;SDS011;363;48.764;9.172;2023-08-24T11:38:24;9.50;;;8.70;;
757;SDS011;363;48.764;9.172;2023-08-24T11:40:50;9.10;;;8.40;;
757;SDS011;363;48.764;9.172;2023-08-24T11:43:24;8.47;;;7.73;;
757;SDS011;363;48.764;9.172;2023-08-24T11:45:50;8.20;;;7.50;;
757;SDS011;363;48.764;9.172;2023-08-24T11:48:16;9.00;;;7.73;;
757;SDS011;363;48.764;9.172;2023-08-24T11:50:42;8.40;;;7.80;;
757;SDS011;363;48.764;9.172;2023-08-24T11:53:07;8.20;;;7.60;;
757;SDS011;363;48.764;9.172;2023-08-24T11:55:33;8.67;;;8.03;;
757;SDS011;363;48.764;9.172;2023-08-24T11:57:59;8.70;;;8.00;;
757;SDS011;363;48.764;9.172;2023-08-24T12:00:25;8.80;;;8.10;;
757;SDS011;363;48.764;9.172;2023-08-24T12:02:51;8.27;;;7.50;;
757;SDS011;363;48.764;9.172;2023-08-24T12:05:21;9.50;;;8.53;;
757;SDS011;363;48.764;9.172;2023-08-24T12:07:48;9.10;;;7.97;;
757;SDS011;363;48.764;9.172;2023-08-24T12:10:15;10.97;;;7.33;;
757;SDS011;363;48.764;9.172;2023-08-24T12:12:41;8.93;;;8.10;;
757;SDS011;363;48.764;9.172;2023-08-24T12:15:07;10.23;;;7.77;;
757;SDS011;363;48.764;9.172;2023-08-24T12:17:43;8.90;;;7.87;;
757;SDS011;363;48.764;9.172;2023-08-24T12:20:16;8.40;;;7.80;;
757;SDS011;363;48.764;9.172;2023-08-24T12:22:49;8.60;;;7.90;;
757;SDS011;363;48.764;9.172;2023-08-24T12:25:16;8.83;;;8.03;;
757;SDS011;363;48.764;9.172;2023-08-24T12:27:41;9.93;;;7.83;;
757;SDS011;363;48.764;9.172;2023-08-24T12:30:07;9.93;;;8.83;;
757;SDS011;363;48.764;9.172;2023-08-24T12:32:48;9.80;;;8.70;;
757;SDS011;363;48.764;9.172;2023-08-24T12:35:15;9.43;;;8.30;;
757;SDS011;363;48.764;9.172;2023-08-24T12:37:41;7.77;;;7.07;;
757;SDS011;363;48.764;9.172;2023-08-24T12:40:07;9.20;;;8.30;;
757;SDS011;363;48.764;9.172;2023-08-24T12:42:33;9.27;;;7.77;;
757;SDS011;363;48.764;9.172;2023-08-24T12:44:59;8.40;;;7.63;;
757;SDS011;363;48.764;9.172;2023-08-24T12:47:24;8.33;;;7.63;;
757;SDS011;363;48.764;9.172;2023-08-24T12:49:51;9.00;;;7.83;;
757;SDS011;363;48.764;9.172;2023-08-24T12:52:19;8.40;;;7.63;;
757;SDS011;363;48.764;9.172;2023-08-24T12:54:45;7.27;;;6.73;;
757;SDS011;363;48.764;9.172;2023-08-24T12:57:10;8.37;;;7.70;;
757;SDS011;363;48.764;9.172;2023-08-24T12:59:36;8.07;;;7.23;;
757;SDS011;363;48.764;9.172;2023-08-24T13:02:01;8.40;;;7.70;;
757;SDS011;363;48.764;9.172;2023-08-24T13:04:29;8.10;;;7.30;;
757;SDS011;363;48.764;9.172;2023-08-24T13:06:57;8.53;;;7.70;;
757;SDS011;363;48.764;9.172;2023-08-24T13:09:22;8.20;;;7.40;;
757;SDS011;363;48.764;9.172;2023-08-24T13:11:48;8.53;;;7.83;;
757;SDS011;363;48.764;9.172;2023-08-24T13:14:14;8.50;;;7.70;;
757;SDS011;363;48.764;9.172;2023-08-24T13:16:40;7.30;;;6.60;;
757;SDS011;363;48.764;9.172;2023-08-24T13:19:05;12.23;;;7.87;;
757;SDS011;363;48.764;9.172;2023-08-24T13:21:32;8.03;;;7.33;;
757;SDS011;363;48.764;9.172;2023-08-24T13:23:57;8.97;;;7.93;;
757;SDS011;363;48.764;9.172;2023-08-24T13:26:23;8.37;;;7.40;;
757;SDS011;363;48.764;9.172;2023-08-24T13:28:49;9.77;;;7.40;;
757;SDS011;363;48.764;9.172;2023-08-24T13:31:15;8.83;;;7.00;;
757;SDS011;363;48.764;9.172;2023-08-24T13:33:41;9.37;;;7.73;;
757;SDS011;363;48.764;9.172;2023-08-24T13:36:07;9.80;;;7.20;;
757;SDS011;363;48.764;9.172;2023-08-24T13:38:32;8.30;;;7.40;;
757;SDS011;363;48.764;9.172;2023-08-24T13:40:58;13.60;;;7.47;;
757;SDS011;363;48.764;9.172;2023-08-24T13:43:24;8.60;;;7.80;;
757;SDS011;363;48.764;9.172;2023-08-24T13:45:49;9.60;;;8.70;;
757;SDS011;363;48.764;9.172;2023-08-24T13:48:15;9.80;;;7.43;;
757;SDS011;363;48.764;9.172;2023-08-24T13:50:41;10.57;;;7.00;;
757;SDS011;363;48.764;9.172;2023-08-24T13:53:07;9.23;;;6.60;;
757;SDS011;363;48.764;9.172;2023-08-24T13:55:32;6.93;;;6.20;;
757;SDS011;363;48.764;9.172;2023-08-24T13:57:58;7.07;;;6.37;;
757;SDS011;363;48.764;9.172;2023-08-24T14:00:24;9.30;;;7.10;;
757;SDS011;363;48.764;9.172;2023-08-24T14:02:51;8.30;;;6.20;;
757;SDS011;363;48.764;9.172;2023-08-24T14:05:16;7.90;;;6.20;;
757;SDS011;363;48.764;9.172;2023-08-24T14:07:42;11.57;;;6.90;;
757;SDS011;363;48.764;9.172;2023-08-24T14:10:08;13.93;;;6.20;;
757;SDS011;363;48.764;9.172;2023-08-24T14:12:34;9.90;;;5.77;;
757;SDS011;363;48.764;9.172;2023-08-24T14:15:00;9.63;;;6.30;;
757;SDS011;363;48.764;9.172;2023-08-24T14:17:25;8.00;;;5.60;;
757;SDS011;363;48.764;9.172;2023-08-24T14:19:51;6.83;;;5.87;;
757;SDS011;363;48.764;9.172;2023-08-24T14:22:17;8.03;;;6.00;;
757;SDS011;363;48.764;9.172;2023-08-24T14:24:42;7.93;;;5.97;;
757;SDS011;363;48.764;9.172;2023-08-24T14:27:08;6.63;;;5.57;;
757;SDS011;363;48.764;9.172;2023-08-24T14:29:33;8.50;;;6.03;;
757;SDS011;363;48.764;9.172;2023-08-24T14:31:59;12.30;;;6.60;;
757;SDS011;363;48.764;9.172;2023-08-24T14:34:25;7.90;;;6.40;;
757;SDS011;363;48.764;9.172;2023-08-24T14:36:51;8.37;;;6.30;;
757;SDS011;363;48.764;9.172;2023-08-24T14:39:16;12.20;;;6.30;;
757;SDS011;363;48.764;9.172;2023-08-24T14:41:42;11.77;;;7.07;;
757;SDS011;363;48.764;9.172;2023-08-24T14:44:07;8.30;;;5.90;;
757;SDS011;363;48.764;9.172;2023-08-24T14:46:33;13.20;;;7.50;;
757;SDS011;363;48.764;9.172;2023-08-24T14:48:59;12.00;;;7.10;;
757;SDS011;363;48.764;9.172;2023-08-24T14:51:25;8.80;;;6.27;;
757;SDS011;363;48.764;9.172;2023-08-24T14:53:50;9.37;;;8.47;;
757;SDS011;363;48.764;9.172;2023-08-24T14:56:16;8.83;;;7.17;;
757;SDS011;363;48.764;9.172;2023-08-24T14:58:41;10.80;;;8.43;;
757;SDS011;363;48.764;9.172;2023-08-24T15:01:07;12.13;;;7.47;;
757;SDS011;363;48.764;9.172;2023-08-24T15:03:33;10.17;;;7.83;;
757;SDS011;363;48.764;9.172;2023-08-24T15:05:59;9.17;;;7.87;;
757;SDS011;363;48.764;9.172;2023-08-24T15:08:25;9.67;;;7.87;;
757;SDS011;363;48.764;9.172;2023-08-24T15:10:56;13.53;;;8.77;;
757;SDS011;363;48.764;9.172;2023-08-24T15:13:23;10.47;;;7.77;;
757;SDS011;363;48.764;9.172;2023-08-24T15:15:50;8.33;;;5.77;;
757;SDS011;363;48.764;9.172;2023-08-24T15:18:17;7.57;;;5.70;;
757;SDS011;363;48.764;9.172;2023-08-24T15:20:43;10.60;;;4.93;;
757;SDS011;363;48.764;9.172;2023-08-24T15:23:08;4.43;;;4.00;;
757;SDS011;363;48.764;9.172;2023-08-24T15:25:35;8.53;;;5.00;;
757;SDS011;363;48.764;9.172;2023-08-24T15:28:01;6.53;;;4.50;;
757;SDS011;363;48.764;9.172;2023-08-24T15:30:27;6.90;;;4.93;;
757;SDS011;363;48.764;9.172;2023-08-24T15:32:52;5.47;;;4.53;;
757;SDS011;363;48.764;9.172;2023-08-24T15:35:18;5.10;;;4.70;;
757;SDS011;363;48.764;9.172;2023-08-24T15:37:43;5.20;;;4.80;;
757;SDS011;363;48.764;9.172;2023-08-24T15:40:09;4.90;;;4.50;;
757;SDS011;363;48.764;9.172;2023-08-24T15:42:35;5.53;;;4.60;;
757;SDS011;363;48.764;9.172;2023-08-24T15:45:01;5.80;;;4.20;;